Time;durP1;ratioP1;P1;durP2;ratioP2;P2;SDS_P1;SDS_P2;PMS_P1;PMS_P2;Temp;Humidity;BMP_temperature;BMP_pressure;BME280_temperature;BME280_humidity;BME280_pressure;Samples;Min_cycle;Max_cycle;Signal;HPM_P1;HPM_P2
2023/06/17 00:02:11;;;;;;;8.28;4.53;;;;;;;19.71;55.89;99812.88;1613380;88;21079;-64
2023/06/17 00:04:41;;;;;;;7.78;4.50;;;;;;;19.68;56.11;99813.42;1622796;88;21582;-63
2023/06/17 00:07:10;;;;;;;6.37;4.50;;;;;;;19.67;56.21;99808.14;1623184;88;21512;-63
2023/06/17 00:09:44;;;;;;;8.03;4.70;;;;;;;19.64;56.20;99813.69;1630560;87;21085;-63
2023/06/17 00:12:10;;;;;;;5.58;4.15;;;;;;;19.62;56.40;99814.52;1624017;88;21068;-64
2023/06/17 00:14:40;;;;;;;9.05;4.62;;;;;;;19.57;56.62;99810.32;1647484;87;21085;-63
2023/06/17 00:17:09;;;;;;;8.43;4.85;;;;;;;19.53;56.76;99805.02;1647641;86;21160;-64
2023/06/17 00:19:38;;;;;;;8.15;4.50;;;;;;;19.49;56.81;99805.22;1647675;87;21129;-63
2023/06/17 00:22:08;;;;;;;6.17;4.58;;;;;;;19.43;57.04;99798.80;1647579;87;21053;-64
2023/06/17 00:24:36;;;;;;;8.58;4.70;;;;;;;19.42;57.04;99804.08;1647558;87;21085;-64
2023/06/17 00:27:06;;;;;;;7.28;5.05;;;;;;;19.38;57.20;99802.95;1641075;87;21120;-65
2023/06/17 00:29:35;;;;;;;6.97;4.50;;;;;;;19.35;57.49;99804.88;1680646;85;21060;-64
2023/06/17 00:32:05;;;;;;;7.70;4.60;;;;;;;19.31;57.69;99801.80;1681050;85;21061;-65
2023/06/17 00:34:34;;;;;;;8.00;4.72;;;;;;;19.28;57.82;99798.73;1681160;85;21037;-65
2023/06/17 00:37:03;;;;;;;7.22;4.40;;;;;;;19.27;57.80;99798.45;1653083;85;21052;-64
2023/06/17 00:39:34;;;;;;;6.80;4.58;;;;;;;19.23;57.52;99797.31;1681032;85;21100;-64
2023/06/17 00:42:04;;;;;;;5.78;4.40;;;;;;;19.19;57.41;99798.95;1681035;85;21053;-64
2023/06/17 00:44:32;;;;;;;7.72;4.67;;;;;;;19.16;57.13;99798.94;1681044;85;21517;-63
2023/06/17 00:47:01;;;;;;;5.83;4.25;;;;;;;19.13;57.18;99792.53;1680804;85;21093;-64
2023/06/17 00:49:34;;;;;;;5.62;4.35;;;;;;;19.08;57.64;99796.67;1680817;85;21096;-64
2023/06/17 00:52:04;;;;;;;6.25;4.42;;;;;;;19.05;57.92;99800.53;1681064;85;21040;-64
2023/06/17 00:54:38;;;;;;;7.12;4.33;;;;;;;18.99;57.94;99797.73;1680383;85;21085;-64
2023/06/17 00:57:13;;;;;;;6.67;4.70;;;;;;;18.91;58.11;99798.23;1681681;85;21060;-64
2023/06/17 00:59:43;;;;;;;6.70;4.53;;;;;;;18.86;58.22;99793.19;1683310;85;21025;-64
2023/06/17 01:02:13;;;;;;;8.50;4.80;;;;;;;18.80;58.21;99800.62;1683119;85;21041;-64
2023/06/17 01:04:42;;;;;;;7.30;4.78;;;;;;;18.77;58.33;99796.16;1682411;85;21099;-63
2023/06/17 01:07:24;;;;;;;7.30;4.87;;;;;;;18.77;58.69;99793.38;1681061;85;21048;-64
2023/06/17 01:09:59;;;;;;;7.60;4.55;;;;;;;18.77;58.85;99791.98;1680941;85;21103;-64
2023/06/17 01:12:28;;;;;;;5.75;4.80;;;;;;;18.75;59.03;99791.42;1680999;85;21029;-64
2023/06/17 01:15:01;;;;;;;5.97;4.85;;;;;;;18.74;59.23;99789.19;1681004;85;21076;-64
2023/06/17 01:17:31;;;;;;;6.33;4.33;;;;;;;18.74;59.34;99793.91;1680690;85;21072;-64
2023/06/17 01:20:00;;;;;;;7.08;4.60;;;;;;;18.68;59.32;99793.87;1680790;85;21064;-64
2023/06/17 01:22:30;;;;;;;15.95;5.10;;;;;;;18.69;59.33;99800.25;1680770;85;21112;-63
2023/06/17 01:25:01;;;;;;;7.70;4.50;;;;;;;18.65;59.17;99799.95;1680747;85;21056;-64
2023/06/17 01:27:33;;;;;;;8.45;4.87;;;;;;;18.62;59.29;99798.25;1680919;85;21092;-64
2023/06/17 01:30:00;;;;;;;7.83;5.30;;;;;;;18.61;59.19;99801.58;1680822;85;21072;-64
2023/06/17 01:32:29;;;;;;;6.33;4.45;;;;;;;18.60;59.23;99807.37;1680879;85;21052;-63
2023/06/17 01:35:09;;;;;;;7.20;4.97;;;;;;;18.57;59.43;99801.80;1680877;85;21287;-63
2023/06/17 01:38:01;;;;;;;9.38;4.83;;;;;;;18.53;59.56;99806.75;1680320;85;21104;-63
2023/06/17 01:40:30;;;;;;;8.65;5.17;;;;;;;18.52;59.91;99803.69;1680149;85;21517;-64
2023/06/17 01:42:58;;;;;;;6.75;4.58;;;;;;;18.47;60.24;99804.48;1680972;85;21041;-63
2023/06/17 01:45:28;;;;;;;14.33;5.25;;;;;;;18.41;60.21;99800.55;1681152;85;21056;-63
2023/06/17 01:47:58;;;;;;;8.98;4.87;;;;;;;18.40;60.33;99798.87;1680951;85;21120;-63
2023/06/17 01:50:27;;;;;;;7.78;4.53;;;;;;;18.38;60.39;99798.58;1680953;85;21060;-64
2023/06/17 01:52:56;;;;;;;8.18;4.55;;;;;;;18.32;60.49;99796.86;1680877;85;21084;-65
2023/06/17 01:55:26;;;;;;;7.45;5.17;;;;;;;18.29;60.81;99801.55;1681030;85;21053;-64
2023/06/17 01:57:56;;;;;;;6.53;4.83;;;;;;;18.30;60.96;99816.25;1680747;85;21017;-63
2023/06/17 02:00:26;;;;;;;6.55;4.80;;;;;;;18.30;60.95;99810.70;1680919;85;21077;-63
2023/06/17 02:02:55;;;;;;;8.13;4.85;;;;;;;18.26;60.92;99810.39;1681048;85;21096;-64
2023/06/17 02:05:25;;;;;;;8.03;4.90;;;;;;;18.23;61.15;99808.15;1650869;85;21063;-64
2023/06/17 02:07:56;;;;;;;9.58;5.00;;;;;;;18.21;61.39;99807.57;1645461;87;21049;-64
2023/06/17 02:10:26;;;;;;;7.90;4.97;;;;;;;18.18;61.76;99806.67;1645530;87;21126;-63
2023/06/17 02:12:57;;;;;;;10.43;5.55;;;;;;;18.15;61.98;99807.75;1645131;87;21340;-63
2023/06/17 02:15:25;;;;;;;13.48;5.67;;;;;;;18.16;62.10;99805.27;1613364;89;21474;-64
2023/06/17 02:17:56;;;;;;;7.33;4.95;;;;;;;18.15;62.27;99803.59;1597591;90;21067;-64
2023/06/17 02:20:26;;;;;;;11.68;5.53;;;;;;;18.11;62.45;99806.60;1613398;89;21088;-63
2023/06/17 02:22:55;;;;;;;8.50;5.10;;;;;;;18.09;62.66;99802.70;1597441;90;21066;-63
2023/06/17 02:25:23;;;;;;;13.78;5.58;;;;;;;18.13;62.59;99808.56;1612945;88;21095;-65
2023/06/17 02:27:54;;;;;;;10.68;4.92;;;;;;;18.13;62.66;99808.56;1597668;90;21062;-64
2023/06/17 02:30:23;;;;;;;9.43;5.05;;;;;;;18.15;62.73;99811.91;1613237;89;21092;-63
2023/06/17 02:32:52;;;;;;;10.23;5.33;;;;;;;18.17;62.77;99807.78;1643770;87;21073;-64
2023/06/17 02:35:21;;;;;;;10.45;5.12;;;;;;;18.13;62.94;99809.95;1644674;87;21034;-64
2023/06/17 02:37:49;;;;;;;9.25;5.12;;;;;;;18.10;62.99;99814.08;1645502;86;21092;-63
2023/06/17 02:40:18;;;;;;;10.45;5.65;;;;;;;18.12;63.10;99807.73;1645380;87;21568;-64
2023/06/17 02:42:49;;;;;;;9.85;5.47;;;;;;;18.15;63.31;99804.98;1645392;87;21116;-64
2023/06/17 02:45:18;;;;;;;8.88;5.50;;;;;;;18.15;63.75;99807.75;1645134;87;21053;-64
2023/06/17 02:47:47;;;;;;;14.03;5.30;;;;;;;18.13;63.93;99812.72;1645407;87;21061;-66
2023/06/17 02:50:17;;;;;;;10.53;5.60;;;;;;;18.11;64.13;99810.77;1645126;87;21049;-63
2023/06/17 02:52:47;;;;;;;12.82;5.55;;;;;;;18.14;64.25;99813.02;1627536;87;21073;-64
2023/06/17 02:55:16;;;;;;;22.73;6.45;;;;;;;18.17;64.19;99809.16;1645166;86;21105;-64
2023/06/17 02:57:45;;;;;;;20.08;6.40;;;;;;;18.17;64.33;99814.70;1645369;87;21053;-66
2023/06/17 03:00:13;;;;;;;29.12;6.47;;;;;;;18.17;64.68;99816.65;1648435;86;21065;-64
2023/06/17 03:02:42;;;;;;;22.35;6.20;;;;;;;18.16;65.07;99815.81;1645366;87;21065;-65
2023/06/17 03:05:12;;;;;;;11.55;5.62;;;;;;;18.16;65.17;99814.97;1647909;86;21062;-65
2023/06/17 03:07:42;;;;;;;11.38;5.83;;;;;;;18.15;65.40;99812.75;1649712;87;21098;-64
2023/06/17 03:10:11;;;;;;;11.80;5.87;;;;;;;18.16;65.63;99814.97;1649836;87;21498;-64
2023/06/17 03:12:42;;;;;;;9.75;5.62;;;;;;;18.17;65.83;99818.03;1649754;86;21053;-63
2023/06/17 03:15:13;;;;;;;18.48;6.30;;;;;;;18.19;65.97;99817.22;1649864;85;21015;-64
2023/06/17 03:17:43;;;;;;;8.93;6.00;;;;;;;18.23;66.13;99818.41;1650000;86;21078;-64
2023/06/17 03:20:12;;;;;;;13.50;5.85;;;;;;;18.23;66.19;99819.79;1649983;87;21048;-64
2023/06/17 03:22:43;;;;;;;15.25;6.55;;;;;;;18.25;66.25;99817.05;1653413;86;21110;-64
2023/06/17 03:25:13;;;;;;;15.38;6.37;;;;;;;18.29;66.16;99816.80;1650010;87;21066;-64
2023/06/17 03:27:43;;;;;;;14.13;6.53;;;;;;;18.32;66.13;99814.05;1649764;87;21498;-63
2023/06/17 03:30:13;;;;;;;10.93;6.28;;;;;;;18.33;66.28;99817.95;1650018;87;21039;-65
2023/06/17 03:32:44;;;;;;;11.50;6.60;;;;;;;18.37;66.41;99819.09;1649905;87;21042;-64
2023/06/17 03:35:13;;;;;;;14.73;6.25;;;;;;;18.41;66.48;99815.25;1649113;86;21030;-63
2023/06/17 03:37:42;;;;;;;10.53;6.47;;;;;;;18.45;66.48;99819.17;1649950;87;21086;-63
2023/06/17 03:40:13;;;;;;;14.55;6.70;;;;;;;18.49;66.53;99821.70;1650007;87;21519;-64
2023/06/17 03:42:42;;;;;;;18.30;6.78;;;;;;;18.51;66.59;99819.50;1649773;87;21454;-65
2023/06/17 03:45:11;;;;;;;17.00;7.30;;;;;;;18.57;66.61;99818.44;1650027;85;21030;-64
2023/06/17 03:47:40;;;;;;;13.95;6.62;;;;;;;18.62;66.54;99822.68;1649917;87;21073;-63
2023/06/17 03:50:10;;;;;;;17.73;7.08;;;;;;;18.66;66.36;99822.98;1649968;87;21097;-63
2023/06/17 03:52:38;;;;;;;18.02;7.35;;;;;;;18.71;66.15;99818.86;1649991;87;21451;-65
2023/06/17 03:55:08;;;;;;;24.52;7.87;;;;;;;18.78;66.02;99819.48;1649728;86;21510;-65
2023/06/17 03:57:37;;;;;;;21.37;7.25;;;;;;;18.83;65.74;99818.13;1649794;86;21065;-64
2023/06/17 04:00:07;;;;;;;16.87;7.80;;;;;;;18.89;65.55;99820.42;1650088;87;21074;-64
2023/06/17 04:02:38;;;;;;;17.92;7.28;;;;;;;18.93;65.34;99816.00;1649831;87;21114;-63
2023/06/17 04:05:07;;;;;;;11.40;7.25;;;;;;;18.99;65.15;99815.77;1663949;85;21060;-64
2023/06/17 04:07:38;;;;;;;11.43;7.05;;;;;;;19.05;65.00;99820.81;1680656;85;21073;-64
2023/06/17 04:10:08;;;;;;;16.42;7.62;;;;;;;19.13;64.88;99815.30;1679928;85;21085;-65
2023/06/17 04:12:37;;;;;;;14.35;7.83;;;;;;;19.21;64.49;99814.80;1680938;85;21095;-66
2023/06/17 04:15:07;;;;;;;13.62;7.40;;;;;;;19.31;64.03;99821.25;1680691;85;21072;-62
2023/06/17 04:17:36;;;;;;;13.20;7.03;;;;;;;19.40;63.60;99809.63;1683962;85;21124;-64
2023/06/17 04:20:12;;;;;;;15.98;8.25;;;;;;;19.49;63.48;99809.39;1683688;85;21041;-64
2023/06/17 04:22:42;;;;;;;10.65;7.15;;;;;;;19.58;63.25;99810.61;1682574;85;21080;-63
2023/06/17 04:25:15;;;;;;;22.32;9.90;;;;;;;19.68;63.13;99814.81;1681482;85;21065;-65
2023/06/17 04:27:46;;;;;;;20.45;8.48;;;;;;;19.76;62.79;99817.07;1680033;85;21461;-63
2023/06/17 04:30:16;;;;;;;13.83;6.67;;;;;;;19.87;62.33;99815.16;1680590;85;21089;-65
2023/06/17 04:32:45;;;;;;;14.47;7.28;;;;;;;19.98;62.37;99816.02;1680439;85;21080;-62
2023/06/17 04:35:18;;;;;;;16.20;8.18;;;;;;;20.08;61.74;99813.27;1680739;85;21045;-63
2023/06/17 04:37:53;;;;;;;16.55;8.20;;;;;;;20.21;60.52;99816.94;1680936;85;21080;-63
2023/06/17 04:40:23;;;;;;;12.25;6.80;;;;;;;20.34;59.70;99823.92;1680466;85;21041;-65
2023/06/17 04:42:52;;;;;;;10.38;5.67;;;;;;;20.44;60.20;99813.67;1680768;85;21069;-63
2023/06/17 04:45:24;;;;;;;12.60;5.45;;;;;;;20.55;56.72;99811.17;1680680;85;21548;-64
2023/06/17 04:47:54;;;;;;;8.03;5.28;;;;;;;20.69;54.07;99818.41;1680401;84;21080;-64
2023/06/17 04:50:24;;;;;;;7.60;5.15;;;;;;;20.85;52.35;99829.84;1680657;85;21084;-64
2023/06/17 04:52:52;;;;;;;7.55;5.72;;;;;;;21.02;51.37;99822.59;1680642;85;21489;-64
2023/06/17 04:55:22;;;;;;;7.67;5.17;;;;;;;21.24;49.94;99832.61;1680752;84;21196;-63
2023/06/17 04:57:51;;;;;;;8.95;5.28;;;;;;;21.54;48.80;99821.41;1680858;85;21676;-64
2023/06/17 05:00:21;;;;;;;7.72;5.30;;;;;;;21.83;48.04;99831.33;1678407;85;21045;-65
2023/06/17 05:02:51;;;;;;;17.25;7.60;;;;;;;22.11;47.83;99819.52;1679974;85;21543;-64
2023/06/17 05:05:21;;;;;;;13.15;6.67;;;;;;;22.40;46.62;99815.42;1680705;85;21096;-64
2023/06/17 05:07:50;;;;;;;9.58;6.00;;;;;;;22.71;46.19;99823.56;1653158;85;21227;-64
2023/06/17 05:10:20;;;;;;;9.50;5.60;;;;;;;23.02;45.51;99828.38;1680864;85;21109;-65
2023/06/17 05:12:49;;;;;;;7.70;5.67;;;;;;;23.36;45.00;99831.11;1681167;85;21132;-64
2023/06/17 05:15:19;;;;;;;7.97;5.60;;;;;;;23.75;44.29;99832.39;1680817;85;21025;-63
2023/06/17 05:17:47;;;;;;;14.47;6.20;;;;;;;24.11;43.59;99833.34;1681006;85;21457;-65
2023/06/17 05:20:16;;;;;;;17.90;8.05;;;;;;;24.42;42.45;99826.20;1680957;85;21052;-65
2023/06/17 05:22:46;;;;;;;12.68;7.00;;;;;;;24.73;41.89;99826.57;1680987;85;21089;-64
2023/06/17 05:25:15;;;;;;;12.07;7.30;;;;;;;24.98;41.30;99825.91;1680383;85;21103;-64
2023/06/17 05:27:46;;;;;;;7.50;5.70;;;;;;;25.22;40.88;99833.59;1680789;85;21048;-65
2023/06/17 05:30:16;;;;;;;11.15;5.67;;;;;;;25.51;39.60;99831.95;1681154;85;21219;-64
2023/06/17 05:32:46;;;;;;;16.15;6.87;;;;;;;25.74;38.92;99832.92;1680975;85;21060;-65
2023/06/17 05:35:15;;;;;;;9.15;5.75;;;;;;;26.02;39.27;99833.19;1681175;85;21017;-65
2023/06/17 05:37:45;;;;;;;12.20;6.40;;;;;;;26.25;38.17;99832.67;1680856;85;21489;-62
2023/06/17 05:40:15;;;;;;;11.93;5.05;;;;;;;26.45;37.54;99825.78;1680910;85;21061;-64
2023/06/17 05:42:45;;;;;;;11.80;6.08;;;;;;;26.65;36.60;99822.48;1680790;85;21100;-64
2023/06/17 05:45:13;;;;;;;9.83;5.78;;;;;;;26.89;36.60;99831.20;1680695;85;21016;-65
2023/06/17 05:47:42;;;;;;;9.68;5.85;;;;;;;27.12;35.64;99837.09;1680737;85;21041;-64
2023/06/17 05:50:11;;;;;;;7.20;4.60;;;;;;;27.35;35.71;99836.50;1680704;85;21082;-64
2023/06/17 05:52:42;;;;;;;10.10;4.90;;;;;;;27.62;34.03;99839.14;1680860;85;21060;-64
2023/06/17 05:55:11;;;;;;;7.33;4.80;;;;;;;27.88;33.39;99835.59;1681058;85;21029;-64
2023/06/17 05:57:40;;;;;;;9.45;4.22;;;;;;;27.98;32.61;99837.56;1680852;85;21104;-64
2023/06/17 06:00:12;;;;;;;11.22;4.95;;;;;;;28.07;32.42;99842.63;1680927;85;21048;-64
2023/06/17 06:02:40;;;;;;;7.20;4.85;;;;;;;28.14;32.97;99842.15;1680674;85;21100;-63
2023/06/17 06:05:10;;;;;;;8.50;4.60;;;;;;;28.29;32.65;99840.87;1680791;85;21044;-63
2023/06/17 06:07:41;;;;;;;9.23;5.03;;;;;;;28.56;31.94;99837.75;1680964;85;21104;-64
2023/06/17 06:10:11;;;;;;;8.55;4.62;;;;;;;28.79;31.49;99839.02;1680718;85;21088;-64
2023/06/17 06:12:45;;;;;;;9.88;5.35;;;;;;;28.93;31.88;99828.42;1680142;85;21098;-65
2023/06/17 06:15:14;;;;;;;14.40;4.60;;;;;;;29.11;31.25;99832.87;1680266;85;21029;-65
2023/06/17 06:17:42;;;;;;;7.97;5.50;;;;;;;29.23;30.92;99838.64;1681107;85;21160;-64
2023/06/17 06:20:12;;;;;;;10.10;5.10;;;;;;;29.37;30.84;99840.47;1681019;85;21064;-66
2023/06/17 06:22:41;;;;;;;9.55;5.83;;;;;;;29.51;30.49;99832.06;1680863;85;21476;-65
2023/06/17 06:25:11;;;;;;;11.10;5.40;;;;;;;29.62;30.83;99837.58;1680990;85;21040;-63
2023/06/17 06:27:41;;;;;;;12.35;6.08;;;;;;;29.73;30.44;99838.61;1680876;85;21060;-64
2023/06/17 06:30:11;;;;;;;15.78;6.15;;;;;;;29.71;30.34;99838.95;1680672;85;21048;-65
2023/06/17 06:32:41;;;;;;;10.88;5.90;;;;;;;29.84;30.21;99838.48;1680680;85;21100;-65
2023/06/17 06:35:11;;;;;;;9.10;4.97;;;;;;;30.04;30.41;99836.94;1681025;85;21507;-64
2023/06/17 06:37:41;;;;;;;8.20;5.45;;;;;;;30.32;29.67;99838.08;1680815;85;21523;-64
2023/06/17 06:40:11;;;;;;;6.85;4.62;;;;;;;30.40;29.63;99844.25;1681001;85;21081;-63
2023/06/17 06:42:40;;;;;;;6.85;5.22;;;;;;;30.52;29.07;99835.02;1680300;85;21100;-64
2023/06/17 06:45:15;;;;;;;8.00;5.03;;;;;;;30.72;28.86;99836.24;1679573;85;21477;-66
2023/06/17 06:47:45;;;;;;;9.50;5.50;;;;;;;31.01;28.33;99831.06;1681188;85;21065;-64
2023/06/17 06:50:13;;;;;;;8.63;5.22;;;;;;;31.19;28.40;99827.73;1661717;85;21057;-64
2023/06/17 06:52:43;;;;;;;10.68;5.28;;;;;;;31.30;27.99;99825.91;1679842;85;21028;-66
2023/06/17 06:55:12;;;;;;;11.20;4.80;;;;;;;31.12;27.41;99826.03;1680528;85;21057;-66
2023/06/17 06:57:41;;;;;;;8.45;5.30;;;;;;;31.03;27.49;99823.05;1680852;85;21037;-65
2023/06/17 07:00:14;;;;;;;14.45;6.12;;;;;;;31.23;27.28;99827.06;1681150;85;21082;-65
2023/06/17 07:02:44;;;;;;;7.50;5.28;;;;;;;31.18;27.35;99829.50;1681414;85;21025;-65
2023/06/17 07:05:13;;;;;;;7.83;5.10;;;;;;;31.05;27.73;99827.19;1678248;85;21112;-65
2023/06/17 07:07:45;;;;;;;6.75;4.55;;;;;;;31.02;27.35;99833.55;1645133;87;21576;-65
2023/06/17 07:10:14;;;;;;;8.83;4.83;;;;;;;31.20;26.71;99826.55;1645507;87;21116;-66
2023/06/17 07:12:43;;;;;;;8.68;4.90;;;;;;;31.27;26.26;99829.44;1613363;89;21058;-66
2023/06/17 07:15:12;;;;;;;5.45;4.67;;;;;;;31.36;26.51;99830.16;1613292;89;21099;-65
2023/06/17 07:17:43;;;;;;;7.37;4.65;;;;;;;31.49;26.09;99834.08;1613308;89;21536;-66
2023/06/17 07:20:12;;;;;;;6.15;4.67;;;;;;;31.55;25.92;99829.02;1596544;88;21117;-64
2023/06/17 07:22:42;;;;;;;7.45;4.45;;;;;;;31.54;26.27;99827.36;1613303;89;21059;-65
2023/06/17 07:25:11;;;;;;;7.10;4.70;;;;;;;31.70;25.91;99829.77;1597734;90;21050;-64
2023/06/17 07:27:41;;;;;;;7.47;5.10;;;;;;;31.84;25.79;99827.41;1613611;88;21084;-66
2023/06/17 07:30:11;;;;;;;5.78;5.10;;;;;;;32.05;25.72;99841.48;1597699;90;21591;-64
2023/06/17 07:32:40;;;;;;;6.87;4.90;;;;;;;32.43;25.26;99841.11;1613285;89;21570;-65
2023/06/17 07:35:09;;;;;;;8.23;4.53;;;;;;;32.72;24.43;99836.33;1588293;90;21071;-65
2023/06/17 07:37:40;;;;;;;7.00;5.22;;;;;;;32.60;24.54;99842.88;1613573;88;21087;-64
2023/06/17 07:40:11;;;;;;;10.10;5.40;;;;;;;32.56;24.73;99836.86;1588829;89;21059;-65
2023/06/17 07:42:44;;;;;;;11.63;5.10;;;;;;;32.32;24.52;99841.37;1645684;86;21061;-66
2023/06/17 07:45:13;;;;;;;14.85;5.60;;;;;;;31.98;25.29;99838.42;1645414;87;21100;-65
2023/06/17 07:47:42;;;;;;;8.53;5.20;;;;;;;31.89;25.54;99838.30;1645448;87;21093;-64
2023/06/17 07:50:11;;;;;;;7.03;4.75;;;;;;;31.80;25.56;99833.55;1645848;87;21121;-64
2023/06/17 07:52:43;;;;;;;8.10;5.40;;;;;;;31.81;25.94;99828.70;1615353;87;21584;-65
2023/06/17 07:55:11;;;;;;;12.93;5.67;;;;;;;31.75;25.45;99823.87;1609617;88;21060;-66
2023/06/17 07:57:39;;;;;;;6.35;4.97;;;;;;;31.71;25.89;99820.09;1629285;87;21082;-67
2023/06/17 08:00:12;;;;;;;8.43;4.78;;;;;;;32.00;24.97;99840.31;1659360;85;20999;-63
2023/06/17 08:02:41;;;;;;;5.67;4.60;;;;;;;32.35;23.98;99829.91;1635426;86;21115;-66
2023/06/17 08:05:10;;;;;;;7.03;4.90;;;;;;;32.40;23.69;99819.14;1628923;88;21109;-65
2023/06/17 08:07:39;;;;;;;4.90;4.37;;;;;;;32.04;23.93;99826.25;1625970;87;21083;-68
2023/06/17 08:10:09;;;;;;;6.53;4.70;;;;;;;31.69;24.28;99818.76;1634408;87;21035;-67
2023/06/17 08:12:40;;;;;;;6.67;4.40;;;;;;;31.61;24.33;99831.85;1652145;87;21054;-68
2023/06/17 08:15:10;;;;;;;6.65;4.37;;;;;;;31.80;24.22;99834.97;1651964;87;21135;-67
2023/06/17 08:17:40;;;;;;;7.20;4.37;;;;;;;32.02;23.88;99830.86;1652220;87;21042;-67
2023/06/17 08:20:10;;;;;;;7.72;4.12;;;;;;;32.17;23.72;99820.80;1652011;86;21463;-67
2023/06/17 08:22:39;;;;;;;11.40;5.20;;;;;;;32.30;23.83;99816.80;1651963;85;21510;-67
2023/06/17 08:25:09;;;;;;;6.45;4.62;;;;;;;32.42;23.60;99823.86;1652037;87;21462;-67
2023/06/17 08:27:37;;;;;;;6.65;4.72;;;;;;;32.26;23.71;99825.78;1638318;87;21019;-66
2023/06/17 08:30:08;;;;;;;10.58;4.45;;;;;;;31.94;23.70;99823.31;1595229;89;21110;-67
2023/06/17 08:32:36;;;;;;;6.90;4.47;;;;;;;31.80;23.80;99823.63;1595179;90;21078;-67
2023/06/17 08:35:06;;;;;;;8.13;4.78;;;;;;;31.55;24.32;99829.02;1595339;90;21043;-66
2023/06/17 08:37:36;;;;;;;9.30;4.85;;;;;;;31.40;24.83;99832.53;1595443;89;21051;-68
2023/06/17 08:40:08;;;;;;;6.47;4.40;;;;;;;31.14;25.39;99830.75;1624372;88;21056;-68
2023/06/17 08:42:38;;;;;;;5.42;4.53;;;;;;;30.98;25.37;99827.52;1624451;88;21123;-67
2023/06/17 08:45:09;;;;;;;28.15;6.50;;;;;;;30.81;25.59;99834.99;1595255;90;21103;-68
2023/06/17 08:47:38;;;;;;;5.17;4.50;;;;;;;30.63;25.90;99831.25;1595305;90;21094;-69
2023/06/17 08:50:08;;;;;;;8.88;5.28;;;;;;;30.45;25.54;99834.16;1624389;88;21060;-66
2023/06/17 08:52:37;;;;;;;10.30;5.03;;;;;;;30.24;25.70;99829.07;1624480;88;21085;-67
2023/06/17 08:55:08;;;;;;;8.63;4.45;;;;;;;30.03;26.01;99835.28;1626791;88;21123;-67
2023/06/17 08:57:36;;;;;;;7.12;5.08;;;;;;;29.98;26.02;99827.80;1627137;88;21100;-67
2023/06/17 09:00:11;;;;;;;6.30;4.67;;;;;;;29.96;26.31;99823.90;1624752;88;21075;-68
2023/06/17 09:02:40;;;;;;;7.65;4.55;;;;;;;30.18;26.25;99827.63;1649959;87;21082;-67
2023/06/17 09:05:09;;;;;;;5.75;4.72;;;;;;;30.57;25.76;99827.19;1606629;87;21042;-68
2023/06/17 09:07:37;;;;;;;7.20;4.75;;;;;;;30.82;25.52;99817.44;1655336;86;21113;-68
2023/06/17 09:10:08;;;;;;;7.33;4.80;;;;;;;31.05;25.39;99820.70;1645495;86;21067;-68
2023/06/17 09:12:39;;;;;;;7.90;5.47;;;;;;;31.21;25.18;99816.92;1656247;85;21477;-67
2023/06/17 09:15:10;;;;;;;6.28;4.80;;;;;;;31.19;25.48;99820.66;1659046;86;21484;-68
2023/06/17 09:17:39;;;;;;;10.35;4.62;;;;;;;31.27;25.46;99820.94;1660545;86;21554;-67
2023/06/17 09:20:14;;;;;;;9.70;4.35;;;;;;;31.35;24.78;99820.84;1660064;85;21102;-66
2023/06/17 09:22:46;;;;;;;9.45;4.53;;;;;;;31.34;24.44;99816.95;1660699;86;21030;-67
2023/06/17 09:25:17;;;;;;;5.92;4.60;;;;;;;31.20;24.94;99820.06;1660903;86;21089;-67
2023/06/17 09:27:52;;;;;;;7.35;5.30;;;;;;;31.08;25.19;99815.17;1660710;86;21184;-66
2023/06/17 09:30:25;;;;;;;;;;;;;;;30.96;25.44;99825.03;1662959;86;21562;-68
2023/06/17 09:32:54;;;;;;;6.58;4.62;;;;;;;30.80;25.51;99824.02;1660840;86;20213;-67
2023/06/17 09:35:22;;;;;;;5.62;4.40;;;;;;;30.57;26.22;99822.12;1635370;85;21106;-67
2023/06/17 09:37:53;;;;;;;19.23;6.12;;;;;;;30.36;26.87;99817.84;1660401;85;21114;-67
2023/06/17 09:40:32;;;;;;;6.25;4.62;;;;;;;30.21;27.30;99821.28;1659803;86;21066;-63
2023/06/17 09:43:02;;;;;;;7.60;4.65;;;;;;;30.11;27.50;99812.63;1660838;86;21094;-68
2023/06/17 09:45:32;;;;;;;6.42;5.05;;;;;;;30.06;27.98;99809.99;1660261;86;21050;-68
2023/06/17 09:48:02;;;;;;;6.00;4.75;;;;;;;30.01;28.05;99807.34;1660586;85;21660;-68
2023/06/17 09:50:32;;;;;;;8.20;4.90;;;;;;;29.95;27.58;99808.12;1608729;86;21077;-67
2023/06/17 09:53:05;;;;;;;6.92;4.50;;;;;;;29.87;27.03;99811.79;1660783;86;21067;-68
2023/06/17 09:55:33;;;;;;;5.83;5.08;;;;;;;29.73;27.22;99804.14;1660680;86;21093;-68
2023/06/17 09:58:01;;;;;;;9.85;6.00;;;;;;;29.59;27.83;99802.97;1634885;85;21137;-66
2023/06/17 10:00:31;;;;;;;8.08;5.58;;;;;;;29.58;28.07;99804.72;1659776;85;21276;-66
2023/06/17 10:03:00;;;;;;;8.38;4.87;;;;;;;29.59;27.97;99805.78;1587975;89;21150;-65
2023/06/17 10:05:30;;;;;;;6.35;5.00;;;;;;;29.59;28.50;99797.91;1587059;89;21120;-67
2023/06/17 10:07:58;;;;;;;6.97;5.40;;;;;;;29.54;28.19;99803.16;1625107;86;21584;-69
2023/06/17 10:10:27;;;;;;;9.45;5.55;;;;;;;29.49;28.26;99794.87;1626838;88;21067;-68
2023/06/17 10:12:57;;;;;;;6.22;4.87;;;;;;;29.46;28.04;99797.55;1637980;87;21100;-69
2023/06/17 10:18:04;;;;;;;7.87;5.70;;;;;;;29.36;27.94;99797.30;1638496;87;21052;-69
2023/06/17 10:20:33;;;;;;;12.37;8.13;;;;;;;29.30;28.54;99788.19;1627932;88;21500;-66
2023/06/17 10:23:02;;;;;;;6.17;5.50;;;;;;;29.25;28.97;99786.93;1639239;87;21071;-68
2023/06/17 10:25:30;;;;;;;6.70;5.20;;;;;;;29.25;28.33;99786.11;1628252;88;21088;-68
2023/06/17 10:28:02;;;;;;;7.58;4.90;;;;;;;29.27;28.20;99786.63;1602587;89;21118;-69
2023/06/17 10:30:32;;;;;;;9.18;5.50;;;;;;;29.28;27.96;99784.05;1595332;89;21219;-68
2023/06/17 10:33:03;;;;;;;8.45;5.22;;;;;;;29.26;27.82;99785.80;1653865;86;21062;-69
2023/06/17 10:35:43;;;;;;;9.60;5.05;;;;;;;29.22;28.12;99789.02;1658467;86;21087;-69
2023/06/17 10:38:29;;;;;;;6.22;5.22;;;;;;;29.18;27.84;99787.20;1658396;86;21052;-68
2023/06/17 10:40:58;;;;;;;5.50;4.72;;;;;;;29.15;27.72;99785.89;1658407;86;21047;-69
2023/06/17 10:43:29;;;;;;;15.75;6.03;;;;;;;29.11;27.66;99779.84;1658486;86;21110;-68
2023/06/17 10:45:57;;;;;;;11.60;7.08;;;;;;;29.06;27.82;99787.08;1628081;88;21116;-67
2023/06/17 10:48:33;;;;;;;7.65;5.33;;;;;;;29.02;28.25;99784.92;1603773;87;21464;-67
2023/06/17 10:51:11;;;;;;;9.25;4.85;;;;;;;28.97;27.89;99788.51;1639640;87;21060;-68
2023/06/17 10:53:51;;;;;;;10.35;5.95;;;;;;;28.90;28.03;99785.38;1639174;87;21365;-69
2023/06/17 10:56:21;;;;;;;18.02;8.68;;;;;;;28.84;29.52;99779.66;1627803;88;21033;-68
2023/06/17 10:58:49;;;;;;;9.80;6.25;;;;;;;28.77;28.75;99775.91;1626155;88;21144;-67
2023/06/17 11:01:18;;;;;;;9.40;5.28;;;;;;;28.77;29.95;99783.54;1596155;90;21567;-67
2023/06/17 11:03:47;;;;;;;9.58;6.40;;;;;;;28.78;29.99;99784.61;1651944;87;21035;-69
2023/06/17 11:06:16;;;;;;;10.25;6.62;;;;;;;28.75;29.19;99781.63;1657927;86;21062;-68
2023/06/17 11:08:46;;;;;;;8.68;6.47;;;;;;;28.70;29.33;99777.83;1659248;85;21058;-68
2023/06/17 11:11:19;;;;;;;9.48;6.08;;;;;;;28.66;29.22;99778.25;1689475;84;21051;-70
2023/06/17 11:13:51;;;;;;;8.75;5.95;;;;;;;28.65;29.55;99778.58;1685269;84;21008;-70
2023/06/17 11:16:19;;;;;;;8.23;5.50;;;;;;;28.66;29.51;99778.83;1682125;85;21008;-68
2023/06/17 11:18:47;;;;;;;8.48;6.15;;;;;;;28.66;28.70;99774.59;1682742;84;21560;-68
2023/06/17 11:21:19;;;;;;;16.65;10.32;;;;;;;28.60;28.97;99773.91;1681771;85;21018;-69
2023/06/17 11:23:48;;;;;;;9.40;6.37;;;;;;;28.55;29.09;99768.44;1654639;86;21733;-68
2023/06/17 11:26:17;;;;;;;8.30;6.37;;;;;;;28.58;29.17;99768.36;1653523;86;21560;-67
2023/06/17 11:28:47;;;;;;;7.40;5.47;;;;;;;28.61;28.67;99764.87;1656639;86;21076;-69
2023/06/17 11:31:15;;;;;;;9.25;5.92;;;;;;;28.61;29.13;99771.38;1653408;87;21063;-68
2023/06/17 11:33:44;;;;;;;9.68;5.42;;;;;;;28.62;29.17;99763.73;1653572;86;21060;-68
2023/06/17 11:36:13;;;;;;;10.13;5.45;;;;;;;28.71;29.20;99762.56;1653398;86;21092;-68
2023/06/17 11:38:42;;;;;;;7.15;5.05;;;;;;;28.86;29.24;99758.42;1653686;87;21077;-68
2023/06/17 11:41:11;;;;;;;6.87;4.87;;;;;;;28.98;28.54;99755.73;1653542;87;21096;-67
2023/06/17 11:43:40;;;;;;;10.32;5.12;;;;;;;28.98;28.54;99755.73;1653416;87;21060;-69
2023/06/17 11:46:09;;;;;;;16.05;10.70;;;;;;;29.02;29.03;99762.95;1653400;86;21053;-67
2023/06/17 11:48:38;;;;;;;10.18;6.00;;;;;;;29.02;29.03;99762.95;1653478;86;21053;-68